createdAt,value
2023-03-10T00:00:00.944Z,8.93
2023-03-10T00:00:32.732Z,8.99
2023-03-10T00:01:13.974Z,8.97
2023-03-10T00:01:45.672Z,8.96
2023-03-10T00:02:17.455Z,8.95
2023-03-10T00:02:50.251Z,9.00
2023-03-10T00:03:22.107Z,8.98
2023-03-10T00:03:55.982Z,8.92
2023-03-10T00:04:27.940Z,8.91
2023-03-10T00:04:59.700Z,8.94
2023-03-10T00:05:31.505Z,8.92
2023-03-10T00:06:03.676Z,8.94
2023-03-10T00:06:36.312Z,8.98
2023-03-10T00:07:08.028Z,8.99
2023-03-10T00:07:40.193Z,8.93
2023-03-10T00:08:12.000Z,8.90
2023-03-10T00:08:44.066Z,9.00
2023-03-10T00:09:15.868Z,8.94
2023-03-10T00:09:47.937Z,8.91
2023-03-10T00:10:19.720Z,9.01
2023-03-10T00:10:51.424Z,9.00
2023-03-10T00:11:23.530Z,8.94
2023-03-10T00:11:55.223Z,9.03
2023-03-10T00:12:27.979Z,8.94
2023-03-10T00:12:59.854Z,9.07
2023-03-10T00:13:31.699Z,9.08
2023-03-10T00:14:03.554Z,9.02
2023-03-10T00:14:35.552Z,8.98
2023-03-10T00:15:08.818Z,9.08
2023-03-10T00:15:40.606Z,9.02
2023-03-10T00:16:21.438Z,9.06
2023-03-10T00:16:53.146Z,9.12
2023-03-10T00:17:24.958Z,9.10
2023-03-10T00:17:56.690Z,9.02
2023-03-10T00:18:28.750Z,9.15
2023-03-10T00:19:00.507Z,9.09
2023-03-10T00:19:32.260Z,9.06
2023-03-10T00:20:11.697Z,9.08
2023-03-10T00:20:43.651Z,9.07
2023-03-10T00:21:27.295Z,9.12
2023-03-10T00:21:59.137Z,9.16
2023-03-10T00:22:30.872Z,9.15
2023-03-10T00:23:02.581Z,9.08
2023-03-10T00:23:37.278Z,9.02
2023-03-10T00:24:09.855Z,9.03
2023-03-10T00:24:41.583Z,9.08
2023-03-10T00:25:13.695Z,9.09
2023-03-10T00:25:45.419Z,9.02
2023-03-10T00:26:19.024Z,9.12
2023-03-10T00:26:50.928Z,9.00
2023-03-10T00:27:22.612Z,9.02
2023-03-10T00:27:54.906Z,9.01
2023-03-10T00:28:28.005Z,9.00
2023-03-10T00:28:59.698Z,8.95
2023-03-10T00:29:31.423Z,9.00
2023-03-10T00:30:03.849Z,9.05
2023-03-10T00:30:35.745Z,9.05
2023-03-10T00:31:17.646Z,9.05
2023-03-10T00:31:49.386Z,9.03
2023-03-10T00:32:21.101Z,9.07
2023-03-10T00:32:55.539Z,9.02
2023-03-10T00:33:27.670Z,9.01
2023-03-10T00:33:59.354Z,9.15
2023-03-10T00:34:31.928Z,9.06
2023-03-10T00:35:04.152Z,9.11
2023-03-10T00:35:35.890Z,9.02
2023-03-10T00:36:23.646Z,9.08
2023-03-10T00:36:55.884Z,9.16
2023-03-10T00:37:27.639Z,9.16
2023-03-10T00:37:59.372Z,8.99
2023-03-10T00:38:31.513Z,9.10
2023-03-10T00:39:05.333Z,9.17
2023-03-10T00:39:37.203Z,9.05
2023-03-10T00:40:12.519Z,8.97
2023-03-10T00:40:44.245Z,8.97
2023-03-10T00:41:21.542Z,9.01
2023-03-10T00:41:53.286Z,9.06
2023-03-10T00:42:25.016Z,8.97
2023-03-10T00:42:56.950Z,9.02
2023-03-10T00:43:29.351Z,9.04
2023-03-10T00:44:01.217Z,9.06
2023-03-10T00:44:32.978Z,8.99
2023-03-10T00:45:04.992Z,9.08
2023-03-10T00:45:36.751Z,9.08
2023-03-10T00:46:08.759Z,9.10
2023-03-10T00:46:41.481Z,9.15
2023-03-10T00:47:13.509Z,9.10
2023-03-10T00:47:45.265Z,9.07
2023-03-10T00:48:17.003Z,9.20
2023-03-10T00:48:48.815Z,9.18
2023-03-10T00:49:21.232Z,9.25
2023-03-10T00:49:53.242Z,9.18
2023-03-10T00:50:25.132Z,9.28
2023-03-10T00:50:57.607Z,9.29
2023-03-10T00:51:29.338Z,9.36
2023-03-10T00:52:01.055Z,9.30
2023-03-10T00:52:33.888Z,9.37
2023-03-10T00:53:05.795Z,9.29
2023-03-10T00:53:39.885Z,9.45
2023-03-10T00:54:12.399Z,9.46
2023-03-10T00:54:44.220Z,9.37
2023-03-10T00:55:15.973Z,9.39
2023-03-10T00:56:08.135Z,9.55
2023-03-10T00:56:39.950Z,9.53
2023-03-10T00:57:11.680Z,9.54
2023-03-10T00:57:43.411Z,9.52
2023-03-10T00:58:15.154Z,9.57
2023-03-10T00:58:50.153Z,9.46
2023-03-10T00:59:21.869Z,9.49
2023-03-10T00:59:54.672Z,9.54
2023-03-10T01:00:26.473Z,9.54
2023-03-10T01:00:59.138Z,9.52
2023-03-10T01:01:39.925Z,9.46
2023-03-10T01:02:11.717Z,9.41
2023-03-10T01:02:43.413Z,9.46
2023-03-10T01:03:15.160Z,9.36
2023-03-10T01:03:47.372Z,9.38
2023-03-10T01:04:20.087Z,9.29
2023-03-10T01:04:51.854Z,9.31
2023-03-10T01:05:23.709Z,9.34
2023-03-10T01:05:56.959Z,9.37
2023-03-10T01:06:28.711Z,9.35
2023-03-10T01:07:00.413Z,9.39
2023-03-10T01:07:32.141Z,9.29
2023-03-10T01:08:03.903Z,9.28
2023-03-10T01:08:35.851Z,9.29
2023-03-10T01:09:07.611Z,9.28
2023-03-10T01:09:39.338Z,9.30
2023-03-10T01:10:14.496Z,9.22
2023-03-10T01:10:46.324Z,9.28
2023-03-10T01:11:20.924Z,9.36
2023-03-10T01:11:52.717Z,9.26
2023-03-10T01:12:24.406Z,9.37
2023-03-10T01:12:56.158Z,9.27
2023-03-10T01:13:27.902Z,9.24
2023-03-10T01:14:02.184Z,9.22
2023-03-10T01:14:33.970Z,9.26
2023-03-10T01:15:06.491Z,9.19
2023-03-10T01:15:39.265Z,9.22
2023-03-10T01:16:11.323Z,9.20
2023-03-10T01:16:43.437Z,9.23
2023-03-10T01:17:15.324Z,9.28
2023-03-10T01:17:47.030Z,9.24
2023-03-10T01:18:20.218Z,9.29
2023-03-10T01:18:51.998Z,9.25
2023-03-10T01:19:23.732Z,9.29
2023-03-10T01:19:55.485Z,9.16
2023-03-10T01:20:27.236Z,9.22
2023-03-10T01:20:59.318Z,9.22
2023-03-10T01:21:34.171Z,9.21
2023-03-10T01:22:05.958Z,9.16
2023-03-10T01:22:37.658Z,9.00
2023-03-10T01:23:18.238Z,9.05
2023-03-10T01:23:50.935Z,9.07
2023-03-10T01:24:22.667Z,9.02
2023-03-10T01:24:54.404Z,9.06
2023-03-10T01:25:27.366Z,8.95
2023-03-10T01:25:59.451Z,9.01
2023-03-10T01:26:31.521Z,9.02
2023-03-10T01:27:03.251Z,8.95
2023-03-10T01:27:34.921Z,8.92
2023-03-10T01:28:06.617Z,8.90
2023-03-10T01:28:39.141Z,8.92
2023-03-10T01:29:10.857Z,8.89
2023-03-10T01:29:42.617Z,8.90
2023-03-10T01:30:14.778Z,8.85
2023-03-10T01:30:46.943Z,8.85
2023-03-10T01:31:18.904Z,8.85
2023-03-10T01:31:50.754Z,8.84
2023-03-10T01:32:22.710Z,8.75
2023-03-10T01:32:54.588Z,8.72
2023-03-10T01:33:26.353Z,8.61
2023-03-10T01:33:58.266Z,8.67
2023-03-10T01:34:29.979Z,8.72
2023-03-10T01:35:01.717Z,8.66
2023-03-10T01:35:33.659Z,8.75
2023-03-10T01:36:17.833Z,8.61
2023-03-10T01:36:49.569Z,8.61
2023-03-10T01:37:21.345Z,8.67
2023-03-10T01:37:53.089Z,8.60
2023-03-10T01:38:24.834Z,8.59
2023-03-10T01:38:57.537Z,8.70
2023-03-10T01:39:29.327Z,8.61
2023-03-10T01:40:04.610Z,8.63
2023-03-10T01:40:37.831Z,8.60
2023-03-10T01:41:09.643Z,8.60
2023-03-10T01:41:42.101Z,8.52
2023-03-10T01:42:13.805Z,8.52
2023-03-10T01:42:46.524Z,8.60
2023-03-10T01:43:20.933Z,8.60
2023-03-10T01:43:55.488Z,8.61
2023-03-10T01:44:27.236Z,8.60
2023-03-10T01:45:10.786Z,8.55
2023-03-10T01:45:45.472Z,8.60
2023-03-10T01:46:39.088Z,8.60
2023-03-10T01:47:11.639Z,8.48
2023-03-10T01:47:43.696Z,8.47
2023-03-10T01:48:17.394Z,8.50
2023-03-10T01:48:49.757Z,8.51
2023-03-10T01:49:42.646Z,8.46
2023-03-10T01:50:17.787Z,8.43
2023-03-10T01:50:54.132Z,8.38
2023-03-10T01:51:26.395Z,8.39
2023-03-10T01:52:20.372Z,8.33
2023-03-10T01:52:58.420Z,8.28
2023-03-10T01:53:30.543Z,8.29
2023-03-10T01:54:07.359Z,8.33
2023-03-10T01:54:46.897Z,8.19
2023-03-10T01:55:32.322Z,8.26
2023-03-10T01:56:06.171Z,8.19
2023-03-10T01:56:39.943Z,8.27
2023-03-10T01:57:13.838Z,8.14
2023-03-10T01:57:50.833Z,8.14
2023-03-10T01:58:27.145Z,8.19
2023-03-10T01:58:58.964Z,8.19
2023-03-10T01:59:30.739Z,8.11
2023-03-10T02:00:04.463Z,8.17
2023-03-10T02:00:36.874Z,8.03
2023-03-10T02:01:11.868Z,8.01
2023-03-10T02:01:43.896Z,8.15
2023-03-10T02:02:16.067Z,8.11
2023-03-10T02:02:53.283Z,8.01
2023-03-10T02:03:30.088Z,8.03
2023-03-10T02:04:08.660Z,8.07
2023-03-10T02:04:48.553Z,7.97
2023-03-10T02:05:21.914Z,8.02
2023-03-10T02:06:03.930Z,7.99
2023-03-10T02:06:37.517Z,7.96
2023-03-10T02:07:10.148Z,7.99
2023-03-10T02:07:43.625Z,7.97
2023-03-10T02:08:18.255Z,8.06
2023-03-10T02:08:58.465Z,8.08
2023-03-10T02:09:31.186Z,8.02
2023-03-10T02:10:04.394Z,8.04
2023-03-10T02:10:37.131Z,8.18
2023-03-10T02:11:09.270Z,8.16
2023-03-10T02:11:41.128Z,8.17
2023-03-10T02:12:15.296Z,8.16
2023-03-10T02:12:47.155Z,8.15
2023-03-10T02:13:18.896Z,8.23
2023-03-10T02:13:50.780Z,8.23
2023-03-10T02:14:22.537Z,8.27
2023-03-10T02:14:54.925Z,8.16
2023-03-10T02:15:26.762Z,8.27
2023-03-10T02:15:58.629Z,8.31
2023-03-10T02:16:30.940Z,8.24
2023-03-10T02:17:06.050Z,8.30
2023-03-10T02:17:40.586Z,8.33
2023-03-10T02:18:14.755Z,8.40
2023-03-10T02:18:49.713Z,8.31
2023-03-10T02:19:52.352Z,8.31
2023-03-10T02:20:40.153Z,8.35
2023-03-10T02:21:11.794Z,8.50
2023-03-10T02:22:03.008Z,8.51
2023-03-10T02:22:35.661Z,8.42
2023-03-10T02:23:10.281Z,8.48
2023-03-10T02:24:27.361Z,8.48
2023-03-10T02:25:22.158Z,8.56
2023-03-10T02:26:10.318Z,8.41
2023-03-10T02:27:01.917Z,8.50
2023-03-10T02:27:35.863Z,8.51
2023-03-10T02:28:07.786Z,8.41
2023-03-10T02:28:39.481Z,8.46
2023-03-10T02:29:21.358Z,8.42
2023-03-10T02:30:13.356Z,8.43
2023-03-10T02:30:48.575Z,8.41
2023-03-10T02:31:23.471Z,8.36
2023-03-10T02:31:56.988Z,8.32
2023-03-10T02:32:33.828Z,8.35
2023-03-10T02:33:15.430Z,8.32
2023-03-10T02:33:48.593Z,8.29
2023-03-10T02:34:20.808Z,8.29
2023-03-10T02:34:52.676Z,8.38
2023-03-10T02:35:24.633Z,8.32
2023-03-10T02:36:12.918Z,8.34
2023-03-10T02:36:45.320Z,8.31
2023-03-10T02:37:25.414Z,8.24
2023-03-10T02:37:57.208Z,8.25
2023-03-10T02:38:28.912Z,8.31
2023-03-10T02:39:00.656Z,8.22
2023-03-10T02:39:32.362Z,8.19
2023-03-10T02:40:25.799Z,8.29
2023-03-10T02:40:57.544Z,8.06
2023-03-10T02:41:33.669Z,8.23
2023-03-10T02:42:05.473Z,8.26
2023-03-10T02:42:37.473Z,8.17
2023-03-10T02:43:20.004Z,8.19
2023-03-10T02:43:55.175Z,8.08
2023-03-10T02:44:27.477Z,8.17
2023-03-10T02:44:59.591Z,8.17
2023-03-10T02:45:38.028Z,8.17
2023-03-10T02:46:09.950Z,8.10
2023-03-10T02:46:41.720Z,8.06
2023-03-10T02:47:14.034Z,8.02
2023-03-10T02:47:45.710Z,8.02
2023-03-10T02:48:29.746Z,8.00
2023-03-10T02:49:03.971Z,8.05
2023-03-10T02:49:37.680Z,8.09
2023-03-10T02:50:11.801Z,8.03
2023-03-10T02:50:48.154Z,8.05
2023-03-10T02:51:24.103Z,8.05
2023-03-10T02:51:57.142Z,8.03
2023-03-10T02:52:38.542Z,7.99
2023-03-10T02:53:18.775Z,7.95
2023-03-10T02:53:50.690Z,7.92
2023-03-10T02:54:22.458Z,7.92
2023-03-10T02:54:54.194Z,7.86
2023-03-10T02:55:25.919Z,7.83
2023-03-10T02:56:00.333Z,7.93
2023-03-10T02:56:34.623Z,7.83
2023-03-10T02:57:06.391Z,7.82
2023-03-10T02:57:38.211Z,7.90
2023-03-10T02:58:10.431Z,7.90
2023-03-10T02:58:42.128Z,7.86
2023-03-10T02:59:15.046Z,7.77
2023-03-10T02:59:46.751Z,7.78
2023-03-10T03:00:18.627Z,7.88
2023-03-10T03:00:51.211Z,7.80
2023-03-10T03:01:23.066Z,7.83
2023-03-10T03:01:54.854Z,7.86
2023-03-10T03:02:26.547Z,7.88
2023-03-10T03:02:58.549Z,7.77
2023-03-10T03:03:30.314Z,7.86
2023-03-10T03:04:02.389Z,7.84
2023-03-10T03:04:34.333Z,7.83
2023-03-10T03:05:06.640Z,7.79
2023-03-10T03:05:39.368Z,7.87
2023-03-10T03:06:11.120Z,7.83
2023-03-10T03:06:42.873Z,7.70
2023-03-10T03:07:14.612Z,7.82
2023-03-10T03:07:46.364Z,7.72
2023-03-10T03:08:19.802Z,7.82
2023-03-10T03:08:51.705Z,7.71
2023-03-10T03:09:23.391Z,7.72
2023-03-10T03:09:55.626Z,7.72
2023-03-10T03:10:28.083Z,7.77
2023-03-10T03:11:00.401Z,7.74
2023-03-10T03:11:32.101Z,7.85
2023-03-10T03:12:04.024Z,7.79
2023-03-10T03:12:35.770Z,7.78
2023-03-10T03:13:08.035Z,7.72
2023-03-10T03:13:39.932Z,7.84
2023-03-10T03:14:12.160Z,7.72
2023-03-10T03:14:43.845Z,7.78
2023-03-10T03:15:15.639Z,7.80
2023-03-10T03:15:48.092Z,7.80
2023-03-10T03:16:20.088Z,7.79
2023-03-10T03:16:51.944Z,7.86
2023-03-10T03:17:23.723Z,7.75
2023-03-10T03:17:55.604Z,7.84
2023-03-10T03:18:27.350Z,7.86
2023-03-10T03:18:59.116Z,7.84
2023-03-10T03:19:30.845Z,7.80
2023-03-10T03:20:11.752Z,7.75
2023-03-10T03:20:43.929Z,7.78
2023-03-10T03:21:17.415Z,7.79
2023-03-10T03:21:50.261Z,7.79
2023-03-10T03:22:22.566Z,7.83
2023-03-10T03:22:57.184Z,7.79
2023-03-10T03:23:28.867Z,7.86
2023-03-10T03:24:00.587Z,7.74
2023-03-10T03:24:32.644Z,7.71
2023-03-10T03:25:04.616Z,7.82
2023-03-10T03:25:39.519Z,7.86
2023-03-10T03:26:22.284Z,7.87
2023-03-10T03:26:54.205Z,7.92
2023-03-10T03:27:25.930Z,7.88
2023-03-10T03:27:57.967Z,7.88
2023-03-10T03:28:30.171Z,7.85
2023-03-10T03:29:01.904Z,7.92
2023-03-10T03:29:33.675Z,7.95
2023-03-10T03:30:12.728Z,7.92
2023-03-10T03:30:46.352Z,7.90
2023-03-10T03:31:21.610Z,7.94
2023-03-10T03:31:53.610Z,7.94
2023-03-10T03:32:25.454Z,8.01
2023-03-10T03:32:58.077Z,8.04
2023-03-10T03:33:29.789Z,8.02
2023-03-10T03:34:02.052Z,8.00
2023-03-10T03:34:33.831Z,7.99
2023-03-10T03:35:11.935Z,8.00
2023-03-10T03:35:44.727Z,8.06
2023-03-10T03:36:17.336Z,8.06
2023-03-10T03:36:49.149Z,7.97
2023-03-10T03:37:20.860Z,7.92
2023-03-10T03:37:54.319Z,8.01
2023-03-10T03:38:27.376Z,8.02
2023-03-10T03:38:59.101Z,7.98
2023-03-10T03:39:31.155Z,8.07
2023-03-10T03:40:12.718Z,8.01
2023-03-10T03:40:45.660Z,8.00
2023-03-10T03:41:17.481Z,8.09
2023-03-10T03:41:53.311Z,8.04
2023-03-10T03:42:27.626Z,8.04
2023-03-10T03:42:59.807Z,8.08
2023-03-10T03:43:31.531Z,7.96
2023-03-10T03:44:03.470Z,7.96
2023-03-10T03:44:35.200Z,8.07
2023-03-10T03:45:08.606Z,8.04
2023-03-10T03:45:40.400Z,8.04
2023-03-10T03:46:12.271Z,8.02
2023-03-10T03:46:44.046Z,8.05
2023-03-10T03:47:15.755Z,8.00
2023-03-10T03:47:47.920Z,8.08
2023-03-10T03:48:22.033Z,8.11
2023-03-10T03:48:54.146Z,8.01
2023-03-10T03:49:25.960Z,8.12
2023-03-10T03:49:57.679Z,8.14
2023-03-10T03:50:29.416Z,8.08
2023-03-10T03:51:01.630Z,8.09
2023-03-10T03:51:35.965Z,8.14
2023-03-10T03:52:08.071Z,8.13
2023-03-10T03:52:40.819Z,8.17
2023-03-10T03:53:12.502Z,8.06
2023-03-10T03:53:44.350Z,8.08
2023-03-10T03:54:16.720Z,8.11
2023-03-10T03:54:48.443Z,8.09
2023-03-10T03:55:20.565Z,8.10
2023-03-10T03:55:52.554Z,8.05
2023-03-10T03:56:24.245Z,8.14
2023-03-10T03:56:56.057Z,8.11
2023-03-10T03:57:27.786Z,8.19
2023-03-10T03:57:59.508Z,8.17
2023-03-10T03:58:31.269Z,8.08
2023-03-10T03:59:03.013Z,8.17
2023-03-10T03:59:35.409Z,8.12
2023-03-10T04:00:12.285Z,8.15
2023-03-10T04:00:44.150Z,8.20
2023-03-10T04:01:15.845Z,8.14
2023-03-10T04:01:47.534Z,8.11
2023-03-10T04:02:19.672Z,8.06
2023-03-10T04:02:51.895Z,8.12
2023-03-10T04:03:23.698Z,8.08
2023-03-10T04:03:55.606Z,8.19
2023-03-10T04:04:27.482Z,8.24
2023-03-10T04:04:59.258Z,8.18
2023-03-10T04:05:30.968Z,8.15
2023-03-10T04:06:02.761Z,8.25
2023-03-10T04:06:34.780Z,8.18
2023-03-10T04:07:06.522Z,8.28
2023-03-10T04:07:40.187Z,8.29
2023-03-10T04:08:13.320Z,8.25
2023-03-10T04:08:45.082Z,8.32
2023-03-10T04:09:18.231Z,8.25
2023-03-10T04:09:50.141Z,8.34
2023-03-10T04:10:23.819Z,8.42
2023-03-10T04:10:56.151Z,8.49
2023-03-10T04:11:27.893Z,8.57
2023-03-10T04:11:59.596Z,8.59
2023-03-10T04:12:31.289Z,8.69
2023-03-10T04:13:03.060Z,8.53
2023-03-10T04:13:34.855Z,8.68
2023-03-10T04:14:06.812Z,8.61
2023-03-10T04:14:38.592Z,8.64
2023-03-10T04:15:11.476Z,8.48
2023-03-10T04:15:43.714Z,8.52
2023-03-10T04:16:15.560Z,8.58
2023-03-10T04:16:56.433Z,8.52
2023-03-10T04:17:28.162Z,8.54
2023-03-10T04:17:59.961Z,8.47
2023-03-10T04:18:31.676Z,8.49
2023-03-10T04:19:07.509Z,8.47
2023-03-10T04:19:39.287Z,8.57
2023-03-10T04:20:14.307Z,8.45
2023-03-10T04:20:46.083Z,8.41
2023-03-10T04:21:18.088Z,8.43
2023-03-10T04:21:50.697Z,8.37
2023-03-10T04:22:22.379Z,8.41
2023-03-10T04:22:54.214Z,8.38
2023-03-10T04:23:26.089Z,8.43
2023-03-10T04:23:57.855Z,8.47
2023-03-10T04:24:29.793Z,8.40
2023-03-10T04:25:01.611Z,8.41
2023-03-10T04:25:33.467Z,8.46
2023-03-10T04:26:09.543Z,8.37
2023-03-10T04:26:41.719Z,8.34
2023-03-10T04:27:13.468Z,8.32
2023-03-10T04:27:45.243Z,8.46
2023-03-10T04:28:16.944Z,8.45
2023-03-10T04:28:48.644Z,8.35
2023-03-10T04:29:24.496Z,8.33
2023-03-10T04:29:57.115Z,8.39
2023-03-10T04:30:29.917Z,8.41
2023-03-10T04:31:01.721Z,8.48
2023-03-10T04:31:34.050Z,8.44
2023-03-10T04:32:06.689Z,8.45
2023-03-10T04:32:38.672Z,8.48
2023-03-10T04:33:12.072Z,8.49
2023-03-10T04:33:43.942Z,8.49
2023-03-10T04:34:15.636Z,8.37
2023-03-10T04:34:47.838Z,8.49
2023-03-10T04:35:19.692Z,8.42
2023-03-10T04:35:52.778Z,8.47
2023-03-10T04:36:24.532Z,8.43
2023-03-10T04:36:56.281Z,8.40
2023-03-10T04:37:28.002Z,8.45
2023-03-10T04:37:59.719Z,8.33
2023-03-10T04:38:31.844Z,8.40
2023-03-10T04:39:05.136Z,8.45
2023-03-10T04:39:37.252Z,8.49
2023-03-10T04:40:13.216Z,8.46
2023-03-10T04:40:45.274Z,8.42
2023-03-10T04:41:17.738Z,8.47
2023-03-10T04:41:49.460Z,8.40
2023-03-10T04:42:22.326Z,8.52
2023-03-10T04:42:54.088Z,8.59
2023-03-10T04:43:25.989Z,8.62
2023-03-10T04:43:57.711Z,8.70
2023-03-10T04:44:31.181Z,8.64
2023-03-10T04:45:03.746Z,8.78
2023-03-10T04:45:35.557Z,8.71
2023-03-10T04:46:07.472Z,8.86
2023-03-10T04:46:39.342Z,8.83
2023-03-10T04:47:11.104Z,8.92
2023-03-10T04:47:42.845Z,8.90
2023-03-10T04:48:15.152Z,8.99
2023-03-10T04:48:47.848Z,8.90
2023-03-10T04:49:19.587Z,9.00
2023-03-10T04:49:51.335Z,8.93
2023-03-10T04:50:23.353Z,9.00
2023-03-10T04:51:13.730Z,9.06
2023-03-10T04:51:45.564Z,9.05
2023-03-10T04:52:17.276Z,9.11
2023-03-10T04:52:50.263Z,9.01
2023-03-10T04:53:22.173Z,9.14
2023-03-10T04:53:53.895Z,8.90
2023-03-10T04:54:25.599Z,8.99
2023-03-10T04:54:57.734Z,9.16
2023-03-10T04:55:29.514Z,9.09
2023-03-10T04:56:03.451Z,9.10
2023-03-10T04:56:35.216Z,9.07
2023-03-10T04:57:07.006Z,9.23
2023-03-10T04:57:39.602Z,9.23
2023-03-10T04:58:11.319Z,9.25
2023-03-10T04:58:43.102Z,9.27
2023-03-10T04:59:15.056Z,9.54
2023-03-10T04:59:46.933Z,9.54
2023-03-10T05:00:20.167Z,9.52
2023-03-10T05:01:02.175Z,9.67
2023-03-10T05:01:34.891Z,9.67
2023-03-10T05:02:06.696Z,9.82
2023-03-10T05:02:39.678Z,9.86
2023-03-10T05:03:11.416Z,9.95
2023-03-10T05:03:43.209Z,9.89
2023-03-10T05:04:15.039Z,9.92
2023-03-10T05:04:47.053Z,9.94
2023-03-10T05:05:18.865Z,9.99
2023-03-10T05:05:50.798Z,9.98
2023-03-10T05:06:22.709Z,9.87
2023-03-10T05:06:54.470Z,9.92
2023-03-10T05:07:26.170Z,9.95
2023-03-10T05:07:57.885Z,10.02
2023-03-10T05:08:29.530Z,10.06
2023-03-10T05:09:04.102Z,10.00
2023-03-10T05:09:37.112Z,10.14
2023-03-10T05:10:09.988Z,10.16
2023-03-10T05:10:44.145Z,10.07
2023-03-10T05:11:16.139Z,10.17
2023-03-10T05:11:47.768Z,10.19
2023-03-10T05:12:19.574Z,10.18
2023-03-10T05:12:51.250Z,10.14
2023-03-10T05:13:23.011Z,10.00
2023-03-10T05:13:54.745Z,10.08
2023-03-10T05:14:26.496Z,10.01
2023-03-10T05:14:58.304Z,10.06
2023-03-10T05:15:31.106Z,10.10
2023-03-10T05:16:03.356Z,10.18
2023-03-10T05:16:35.103Z,10.17
2023-03-10T05:17:07.089Z,10.15
2023-03-10T05:17:38.888Z,10.17
2023-03-10T05:18:12.274Z,10.15
2023-03-10T05:18:44.303Z,10.19
2023-03-10T05:19:16.126Z,10.23
2023-03-10T05:19:47.856Z,10.36
2023-03-10T05:20:20.369Z,10.38
2023-03-10T05:20:56.739Z,10.32
2023-03-10T05:21:28.573Z,10.29
2023-03-10T05:22:00.813Z,10.28
2023-03-10T05:22:32.529Z,10.25
2023-03-10T05:23:04.380Z,10.28
2023-03-10T05:23:36.169Z,10.26
2023-03-10T05:24:08.032Z,10.23
2023-03-10T05:24:39.759Z,10.27
2023-03-10T05:25:12.317Z,10.15
2023-03-10T05:25:44.072Z,10.15
2023-03-10T05:26:16.479Z,9.99
2023-03-10T05:26:48.342Z,10.08
2023-03-10T05:27:21.996Z,10.03
2023-03-10T05:27:53.822Z,9.98
2023-03-10T05:28:25.502Z,10.01
2023-03-10T05:28:57.745Z,9.95
2023-03-10T05:29:29.637Z,9.94
2023-03-10T05:30:01.857Z,9.91
2023-03-10T05:30:33.515Z,9.71
2023-03-10T05:31:10.310Z,9.74
2023-03-10T05:31:42.590Z,9.78
2023-03-10T05:32:14.385Z,9.80
2023-03-10T05:32:46.317Z,9.80
2023-03-10T05:33:18.098Z,9.78
2023-03-10T05:33:49.830Z,9.79
2023-03-10T05:34:23.840Z,9.75
2023-03-10T05:34:55.816Z,9.74
2023-03-10T05:35:27.531Z,9.66
2023-03-10T05:35:59.295Z,9.71
2023-03-10T05:36:31.055Z,9.73
2023-03-10T05:37:02.868Z,9.78
2023-03-10T05:37:42.267Z,9.81
2023-03-10T05:38:14.021Z,9.71
2023-03-10T05:38:45.704Z,9.74
2023-03-10T05:39:17.404Z,9.76
2023-03-10T05:39:49.110Z,9.77
2023-03-10T05:40:22.349Z,9.76
2023-03-10T05:40:54.037Z,9.74
2023-03-10T05:41:25.726Z,9.75
2023-03-10T05:41:57.669Z,9.77
2023-03-10T05:42:29.952Z,9.79
2023-03-10T05:43:02.236Z,9.80
2023-03-10T05:43:34.027Z,9.77
2023-03-10T05:44:06.077Z,9.78
2023-03-10T05:44:39.359Z,9.84
2023-03-10T05:45:11.593Z,9.82
2023-03-10T05:45:43.349Z,9.81
2023-03-10T05:46:15.095Z,9.87
2023-03-10T05:46:46.835Z,9.87
2023-03-10T05:47:19.303Z,9.89
2023-03-10T05:47:51.001Z,9.86
2023-03-10T05:48:22.789Z,9.86
2023-03-10T05:48:54.529Z,9.87
2023-03-10T05:49:26.297Z,9.87
2023-03-10T05:49:58.021Z,9.85
2023-03-10T05:50:29.728Z,9.88
2023-03-10T05:51:05.440Z,9.88
2023-03-10T05:51:37.182Z,9.85
2023-03-10T05:52:08.899Z,9.88
2023-03-10T05:52:43.562Z,9.87
2023-03-10T05:53:15.404Z,9.82
2023-03-10T05:53:47.114Z,9.80
2023-03-10T05:54:19.096Z,9.76
2023-03-10T05:54:50.809Z,9.81
2023-03-10T05:55:24.110Z,9.81
2023-03-10T05:55:56.633Z,9.78
2023-03-10T05:56:28.377Z,9.83
2023-03-10T05:57:00.132Z,9.75
2023-03-10T05:57:31.886Z,9.84
2023-03-10T05:58:03.640Z,9.74
2023-03-10T05:58:36.287Z,9.71
2023-03-10T05:59:08.076Z,9.80
2023-03-10T05:59:39.845Z,9.82
2023-03-10T06:00:13.718Z,9.81
2023-03-10T06:00:45.401Z,9.84
2023-03-10T06:01:18.534Z,9.88
2023-03-10T06:01:50.710Z,9.88
2023-03-10T06:02:22.883Z,9.83
2023-03-10T06:02:54.732Z,9.81
2023-03-10T06:03:28.738Z,9.73
2023-03-10T06:04:00.698Z,9.85
2023-03-10T06:04:33.421Z,9.86
2023-03-10T06:05:11.423Z,9.81
2023-03-10T06:05:43.638Z,9.87
2023-03-10T06:06:15.309Z,9.86
2023-03-10T06:06:47.107Z,9.85
2023-03-10T06:07:18.960Z,9.89
2023-03-10T06:07:51.417Z,9.87
2023-03-10T06:08:23.736Z,9.82
2023-03-10T06:08:55.657Z,9.85
2023-03-10T06:09:28.737Z,9.85
2023-03-10T06:10:00.576Z,9.84
2023-03-10T06:10:32.310Z,9.85
2023-03-10T06:11:05.609Z,9.82
2023-03-10T06:11:37.404Z,9.81
2023-03-10T06:12:11.831Z,9.90
2023-03-10T06:12:43.542Z,10.00
2023-03-10T06:13:15.925Z,9.94
2023-03-10T06:13:47.711Z,9.97
2023-03-10T06:14:19.466Z,10.02
2023-03-10T06:14:51.151Z,9.99
2023-03-10T06:15:23.133Z,10.03
2023-03-10T06:16:00.312Z,10.05
2023-03-10T06:16:32.237Z,10.06
2023-03-10T06:17:04.005Z,10.06
2023-03-10T06:17:35.745Z,10.06
2023-03-10T06:18:08.012Z,10.05
2023-03-10T06:18:39.788Z,10.15
2023-03-10T06:19:11.600Z,10.19
2023-03-10T06:19:43.452Z,10.11
2023-03-10T06:20:15.751Z,10.16
2023-03-10T06:20:48.370Z,10.23
2023-03-10T06:21:20.110Z,10.27
2023-03-10T06:21:52.234Z,10.28
2023-03-10T06:22:24.500Z,10.34
2023-03-10T06:22:56.202Z,10.30
2023-03-10T06:23:28.698Z,10.25
2023-03-10T06:24:00.623Z,10.16
2023-03-10T06:24:32.294Z,10.14
2023-03-10T06:25:04.941Z,10.21
2023-03-10T06:25:37.195Z,10.23
2023-03-10T06:26:14.004Z,10.23
2023-03-10T06:26:45.684Z,10.22
2023-03-10T06:27:17.462Z,10.19
2023-03-10T06:27:49.321Z,10.22
2023-03-10T06:28:21.369Z,10.08
2023-03-10T06:28:53.183Z,10.02
2023-03-10T06:29:24.927Z,10.03
2023-03-10T06:30:00.910Z,10.13
2023-03-10T06:30:33.086Z,10.06
2023-03-10T06:31:13.223Z,10.01
2023-03-10T06:31:45.144Z,10.00
2023-03-10T06:32:16.954Z,10.02
2023-03-10T06:32:48.958Z,10.01
2023-03-10T06:33:21.009Z,10.12
2023-03-10T06:33:53.567Z,10.09
2023-03-10T06:34:25.265Z,10.07
2023-03-10T06:34:59.538Z,10.13
2023-03-10T06:35:32.000Z,10.16
2023-03-10T06:36:04.686Z,10.21
2023-03-10T06:36:37.509Z,10.20
2023-03-10T06:37:09.367Z,10.22
2023-03-10T06:37:41.327Z,10.17
2023-03-10T06:38:13.223Z,10.20
2023-03-10T06:38:45.313Z,10.22
2023-03-10T06:39:16.992Z,10.20
2023-03-10T06:39:49.404Z,10.20
2023-03-10T06:40:23.808Z,10.24
2023-03-10T06:40:55.553Z,10.24
2023-03-10T06:41:30.179Z,10.31
2023-03-10T06:42:07.423Z,10.36
2023-03-10T06:43:33.393Z,10.30
2023-03-10T06:44:32.005Z,10.32
2023-03-10T06:45:16.213Z,10.32
2023-03-10T06:46:40.133Z,10.35
2023-03-10T06:52:14.626Z,10.23
2023-03-10T06:56:26.647Z,10.20
2023-03-10T07:04:52.891Z,10.20
2023-03-10T07:05:28.971Z,10.19
2023-03-10T07:06:00.970Z,10.23
2023-03-10T07:06:33.026Z,10.31
2023-03-10T07:07:06.297Z,10.35
2023-03-10T07:07:42.039Z,10.47
2023-03-10T07:08:14.159Z,10.48
2023-03-10T07:08:47.058Z,10.56
2023-03-10T07:09:20.312Z,10.67
2023-03-10T07:09:54.258Z,10.69
2023-03-10T07:10:26.434Z,10.74
2023-03-10T07:10:58.304Z,10.82
2023-03-10T07:11:30.287Z,10.86
2023-03-10T07:12:03.541Z,10.89
2023-03-10T07:12:35.589Z,10.93
2023-03-10T07:13:08.402Z,10.90
2023-03-10T07:13:42.815Z,10.95
2023-03-10T07:14:19.236Z,10.94
2023-03-10T07:14:51.546Z,11.04
2023-03-10T07:15:24.147Z,11.06
2023-03-10T07:15:57.476Z,11.14
2023-03-10T07:16:29.784Z,11.03
2023-03-10T07:17:50.421Z,10.99
2023-03-10T07:18:23.217Z,11.01
2023-03-10T07:18:55.338Z,11.01
2023-03-10T07:19:27.086Z,11.02
2023-03-10T07:19:59.155Z,10.96
2023-03-10T07:20:31.913Z,11.04
2023-03-10T07:21:08.320Z,11.03
2023-03-10T07:21:40.340Z,11.00
2023-03-10T07:22:12.180Z,10.99
2023-03-10T07:22:44.832Z,10.91
2023-03-10T07:23:16.714Z,11.00
2023-03-10T07:23:48.643Z,10.98
2023-03-10T07:24:22.888Z,10.96
2023-03-10T07:24:56.349Z,11.00
2023-03-10T07:25:28.274Z,11.03
2023-03-10T07:26:00.340Z,11.05
2023-03-10T07:26:32.508Z,11.10
2023-03-10T07:27:07.711Z,11.17
2023-03-10T07:27:39.931Z,11.21
2023-03-10T07:28:13.076Z,11.26
2023-03-10T07:28:45.156Z,11.29
2023-03-10T07:29:19.080Z,11.31
2023-03-10T07:29:51.306Z,11.29
2023-03-10T07:30:23.323Z,11.37
2023-03-10T07:30:58.193Z,11.41
2023-03-10T07:31:30.653Z,11.39
2023-03-10T07:32:02.581Z,11.36
2023-03-10T07:32:36.190Z,11.33
2023-03-10T07:33:09.021Z,11.35
2023-03-10T07:33:41.888Z,11.37
2023-03-10T07:34:14.132Z,11.39
2023-03-10T07:34:46.801Z,11.39
2023-03-10T07:35:19.024Z,11.41
2023-03-10T07:36:02.580Z,11.43
2023-03-10T07:36:34.926Z,11.46
2023-03-10T07:37:06.972Z,11.49
2023-03-10T07:37:40.688Z,11.58
2023-03-10T07:38:12.603Z,11.65
2023-03-10T07:38:44.744Z,11.72
2023-03-10T07:39:16.601Z,11.78